sensor_id;sensor_type;location;lat;lon;timestamp;P1;durP1;ratioP1;P2;durP2;ratioP2
3036;SDS011;1528;52.550;13.408;2023-04-24T00:01:53;8.57;;;7.93;;
3036;SDS011;1528;52.550;13.408;2023-04-24T00:04:41;8.90;;;8.50;;
3036;SDS011;1528;52.550;13.408;2023-04-24T00:07:28;9.80;;;9.30;;
3036;SDS011;1528;52.550;13.408;2023-04-24T00:10:13;9.53;;;9.03;;
3036;SDS011;1528;52.550;13.408;2023-04-24T00:12:59;9.40;;;8.90;;
3036;SDS011;1528;52.550;13.408;2023-04-24T00:15:45;10.13;;;9.63;;
3036;SDS011;1528;52.550;13.408;2023-04-24T00:18:31;9.60;;;9.10;;
3036;SDS011;1528;52.550;13.408;2023-04-24T00:21:18;9.13;;;8.73;;
3036;SDS011;1528;52.550;13.408;2023-04-24T00:24:04;9.77;;;9.27;;
3036;SDS011;1528;52.550;13.408;2023-04-24T00:26:50;9.13;;;8.57;;
3036;SDS011;1528;52.550;13.408;2023-04-24T00:29:35;9.43;;;8.93;;
3036;SDS011;1528;52.550;13.408;2023-04-24T00:32:21;9.90;;;9.40;;
3036;SDS011;1528;52.550;13.408;2023-04-24T00:35:07;10.53;;;10.03;;
3036;SDS011;1528;52.550;13.408;2023-04-24T00:37:54;9.30;;;8.80;;
3036;SDS011;1528;52.550;13.408;2023-04-24T00:40:40;10.40;;;9.80;;
3036;SDS011;1528;52.550;13.408;2023-04-24T00:43:25;10.27;;;9.77;;
3036;SDS011;1528;52.550;13.408;2023-04-24T00:46:11;9.57;;;9.17;;
3036;SDS011;1528;52.550;13.408;2023-04-24T00:48:57;10.00;;;9.40;;
3036;SDS011;1528;52.550;13.408;2023-04-24T00:51:44;10.30;;;9.80;;
3036;SDS011;1528;52.550;13.408;2023-04-24T00:54:31;10.33;;;9.73;;
3036;SDS011;1528;52.550;13.408;2023-04-24T00:57:16;8.63;;;8.13;;
3036;SDS011;1528;52.550;13.408;2023-04-24T01:00:03;10.40;;;9.80;;
3036;SDS011;1528;52.550;13.408;2023-04-24T01:02:55;9.60;;;9.20;;
3036;SDS011;1528;52.550;13.408;2023-04-24T01:05:44;9.97;;;9.47;;
3036;SDS011;1528;52.550;13.408;2023-04-24T01:08:29;10.00;;;9.50;;
3036;SDS011;1528;52.550;13.408;2023-04-24T01:11:17;10.57;;;9.83;;
3036;SDS011;1528;52.550;13.408;2023-04-24T01:14:03;10.57;;;10.07;;
3036;SDS011;1528;52.550;13.408;2023-04-24T01:16:48;10.83;;;10.33;;
3036;SDS011;1528;52.550;13.408;2023-04-24T01:19:34;9.73;;;9.33;;
3036;SDS011;1528;52.550;13.408;2023-04-24T01:22:22;10.30;;;9.77;;
3036;SDS011;1528;52.550;13.408;2023-04-24T01:25:08;10.73;;;10.13;;
3036;SDS011;1528;52.550;13.408;2023-04-24T01:27:53;10.83;;;10.23;;
3036;SDS011;1528;52.550;13.408;2023-04-24T01:30:39;10.30;;;9.80;;
3036;SDS011;1528;52.550;13.408;2023-04-24T01:33:25;10.20;;;9.60;;
3036;SDS011;1528;52.550;13.408;2023-04-24T01:36:11;9.17;;;8.67;;
3036;SDS011;1528;52.550;13.408;2023-04-24T01:38:58;10.67;;;10.10;;
3036;SDS011;1528;52.550;13.408;2023-04-24T01:41:44;9.10;;;8.70;;
3036;SDS011;1528;52.550;13.408;2023-04-24T01:44:29;11.30;;;10.70;;
3036;SDS011;1528;52.550;13.408;2023-04-24T01:47:15;10.43;;;9.90;;
3036;SDS011;1528;52.550;13.408;2023-04-24T01:50:01;9.90;;;9.40;;
3036;SDS011;1528;52.550;13.408;2023-04-24T01:52:48;10.33;;;9.73;;
3036;SDS011;1528;52.550;13.408;2023-04-24T01:55:34;9.57;;;9.07;;
3036;SDS011;1528;52.550;13.408;2023-04-24T01:58:20;9.87;;;9.37;;
3036;SDS011;1528;52.550;13.408;2023-04-24T02:01:06;10.63;;;10.03;;
3036;SDS011;1528;52.550;13.408;2023-04-24T02:03:51;9.20;;;8.70;;
3036;SDS011;1528;52.550;13.408;2023-04-24T02:06:37;9.17;;;8.67;;
3036;SDS011;1528;52.550;13.408;2023-04-24T02:09:23;11.23;;;10.57;;
3036;SDS011;1528;52.550;13.408;2023-04-24T02:12:10;10.37;;;9.77;;
3036;SDS011;1528;52.550;13.408;2023-04-24T02:14:55;9.53;;;9.03;;
3036;SDS011;1528;52.550;13.408;2023-04-24T02:17:41;10.70;;;10.10;;
3036;SDS011;1528;52.550;13.408;2023-04-24T02:20:27;9.53;;;8.93;;
3036;SDS011;1528;52.550;13.408;2023-04-24T02:23:12;10.30;;;9.80;;
3036;SDS011;1528;52.550;13.408;2023-04-24T02:25:58;9.83;;;9.33;;
3036;SDS011;1528;52.550;13.408;2023-04-24T02:28:45;9.63;;;9.03;;
3036;SDS011;1528;52.550;13.408;2023-04-24T02:31:31;10.03;;;9.53;;
3036;SDS011;1528;52.550;13.408;2023-04-24T02:34:16;9.50;;;9.00;;
3036;SDS011;1528;52.550;13.408;2023-04-24T02:37:02;11.30;;;10.50;;
3036;SDS011;1528;52.550;13.408;2023-04-24T02:39:47;11.07;;;10.37;;
3036;SDS011;1528;52.550;13.408;2023-04-24T02:42:33;10.60;;;10.00;;
3036;SDS011;1528;52.550;13.408;2023-04-24T02:45:20;11.73;;;11.10;;
3036;SDS011;1528;52.550;13.408;2023-04-24T02:48:06;12.77;;;12.13;;
3036;SDS011;1528;52.550;13.408;2023-04-24T02:50:51;11.50;;;10.80;;
3036;SDS011;1528;52.550;13.408;2023-04-24T02:53:37;12.00;;;11.30;;
3036;SDS011;1528;52.550;13.408;2023-04-24T02:56:23;11.53;;;10.90;;
3036;SDS011;1528;52.550;13.408;2023-04-24T02:59:08;11.20;;;10.60;;
3036;SDS011;1528;52.550;13.408;2023-04-24T03:01:56;11.90;;;11.20;;
3036;SDS011;1528;52.550;13.408;2023-04-24T03:04:41;10.20;;;9.57;;
3036;SDS011;1528;52.550;13.408;2023-04-24T03:07:27;12.73;;;12.03;;
3036;SDS011;1528;52.550;13.408;2023-04-24T03:10:13;9.70;;;9.20;;
3036;SDS011;1528;52.550;13.408;2023-04-24T03:12:59;12.27;;;11.57;;
3036;SDS011;1528;52.550;13.408;2023-04-24T03:15:44;12.07;;;11.47;;
3036;SDS011;1528;52.550;13.408;2023-04-24T03:18:32;12.20;;;11.60;;
3036;SDS011;1528;52.550;13.408;2023-04-24T03:21:17;11.23;;;10.63;;
3036;SDS011;1528;52.550;13.408;2023-04-24T03:24:02;11.73;;;11.13;;
3036;SDS011;1528;52.550;13.408;2023-04-24T03:26:48;10.90;;;10.30;;
3036;SDS011;1528;52.550;13.408;2023-04-24T03:29:34;12.10;;;11.40;;
3036;SDS011;1528;52.550;13.408;2023-04-24T03:32:19;13.00;;;11.73;;
3036;SDS011;1528;52.550;13.408;2023-04-24T03:35:07;11.67;;;11.07;;
3036;SDS011;1528;52.550;13.408;2023-04-24T03:37:53;12.80;;;12.10;;
3036;SDS011;1528;52.550;13.408;2023-04-24T03:40:39;13.50;;;12.87;;
3036;SDS011;1528;52.550;13.408;2023-04-24T03:43:24;12.40;;;11.53;;
3036;SDS011;1528;52.550;13.408;2023-04-24T03:46:11;11.67;;;11.00;;
3036;SDS011;1528;52.550;13.408;2023-04-24T03:48:56;12.40;;;11.60;;
3036;SDS011;1528;52.550;13.408;2023-04-24T03:51:43;11.27;;;10.77;;
3036;SDS011;1528;52.550;13.408;2023-04-24T03:54:29;11.93;;;11.17;;
3036;SDS011;1528;52.550;13.408;2023-04-24T03:57:14;12.23;;;11.63;;
3036;SDS011;1528;52.550;13.408;2023-04-24T04:00:00;12.10;;;11.50;;
3036;SDS011;1528;52.550;13.408;2023-04-24T04:02:50;12.00;;;11.40;;
3036;SDS011;1528;52.550;13.408;2023-04-24T04:05:35;13.17;;;12.47;;
3036;SDS011;1528;52.550;13.408;2023-04-24T04:08:22;10.30;;;9.70;;
3036;SDS011;1528;52.550;13.408;2023-04-24T04:11:08;11.00;;;10.40;;
3036;SDS011;1528;52.550;13.408;2023-04-24T04:13:53;10.07;;;9.43;;
3036;SDS011;1528;52.550;13.408;2023-04-24T04:16:40;10.63;;;10.03;;
3036;SDS011;1528;52.550;13.408;2023-04-24T04:19:26;11.17;;;10.57;;
3036;SDS011;1528;52.550;13.408;2023-04-24T04:22:11;11.70;;;11.10;;
3036;SDS011;1528;52.550;13.408;2023-04-24T04:24:58;10.73;;;10.07;;
3036;SDS011;1528;52.550;13.408;2023-04-24T04:27:44;11.63;;;11.03;;
3036;SDS011;1528;52.550;13.408;2023-04-24T04:30:31;10.37;;;9.87;;
3036;SDS011;1528;52.550;13.408;2023-04-24T04:33:17;11.07;;;10.50;;
3036;SDS011;1528;52.550;13.408;2023-04-24T04:36:03;10.03;;;9.43;;
3036;SDS011;1528;52.550;13.408;2023-04-24T04:38:48;11.00;;;10.40;;
3036;SDS011;1528;52.550;13.408;2023-04-24T04:41:35;12.50;;;11.80;;
3036;SDS011;1528;52.550;13.408;2023-04-24T04:44:23;10.77;;;10.27;;
3036;SDS011;1528;52.550;13.408;2023-04-24T04:47:11;10.67;;;10.10;;
3036;SDS011;1528;52.550;13.408;2023-04-24T04:49:57;11.03;;;10.43;;
3036;SDS011;1528;52.550;13.408;2023-04-24T04:52:42;11.17;;;10.37;;
3036;SDS011;1528;52.550;13.408;2023-04-24T04:55:28;9.50;;;8.90;;
3036;SDS011;1528;52.550;13.408;2023-04-24T04:58:15;10.47;;;9.77;;
3036;SDS011;1528;52.550;13.408;2023-04-24T05:01:00;10.83;;;10.13;;
3036;SDS011;1528;52.550;13.408;2023-04-24T05:03:46;10.30;;;9.80;;
3036;SDS011;1528;52.550;13.408;2023-04-24T05:06:31;9.87;;;9.27;;
3036;SDS011;1528;52.550;13.408;2023-04-24T05:09:17;10.87;;;10.17;;
3036;SDS011;1528;52.550;13.408;2023-04-24T05:12:03;9.70;;;9.00;;
3036;SDS011;1528;52.550;13.408;2023-04-24T05:14:50;9.60;;;9.10;;
3036;SDS011;1528;52.550;13.408;2023-04-24T05:17:35;11.13;;;10.53;;
3036;SDS011;1528;52.550;13.408;2023-04-24T05:20:21;10.07;;;9.37;;
3036;SDS011;1528;52.550;13.408;2023-04-24T05:23:07;9.50;;;8.90;;
3036;SDS011;1528;52.550;13.408;2023-04-24T05:25:52;9.40;;;8.80;;
3036;SDS011;1528;52.550;13.408;2023-04-24T05:28:38;10.00;;;9.37;;
3036;SDS011;1528;52.550;13.408;2023-04-24T05:31:25;10.10;;;9.50;;
3036;SDS011;1528;52.550;13.408;2023-04-24T05:34:11;9.63;;;8.83;;
3036;SDS011;1528;52.550;13.408;2023-04-24T05:36:56;9.60;;;9.10;;
3036;SDS011;1528;52.550;13.408;2023-04-24T05:39:42;9.53;;;8.83;;
3036;SDS011;1528;52.550;13.408;2023-04-24T05:42:27;9.27;;;8.57;;
3036;SDS011;1528;52.550;13.408;2023-04-24T05:45:13;9.60;;;8.90;;
3036;SDS011;1528;52.550;13.408;2023-04-24T05:48:01;7.80;;;7.30;;
3036;SDS011;1528;52.550;13.408;2023-04-24T05:50:47;6.90;;;6.60;;
3036;SDS011;1528;52.550;13.408;2023-04-24T05:53:33;8.67;;;8.17;;
3036;SDS011;1528;52.550;13.408;2023-04-24T05:56:18;7.80;;;7.40;;
3036;SDS011;1528;52.550;13.408;2023-04-24T05:59:04;7.37;;;7.07;;
3036;SDS011;1528;52.550;13.408;2023-04-24T06:01:51;7.90;;;7.30;;
3036;SDS011;1528;52.550;13.408;2023-04-24T06:04:37;7.33;;;6.87;;
3036;SDS011;1528;52.550;13.408;2023-04-24T06:07:23;8.03;;;7.33;;
3036;SDS011;1528;52.550;13.408;2023-04-24T06:10:09;6.10;;;5.80;;
3036;SDS011;1528;52.550;13.408;2023-04-24T06:12:55;8.63;;;7.97;;
3036;SDS011;1528;52.550;13.408;2023-04-24T06:15:43;7.93;;;7.53;;
3036;SDS011;1528;52.550;13.408;2023-04-24T06:18:29;7.27;;;6.90;;
3036;SDS011;1528;52.550;13.408;2023-04-24T06:21:17;8.20;;;7.77;;
3036;SDS011;1528;52.550;13.408;2023-04-24T06:24:02;8.03;;;7.53;;
3036;SDS011;1528;52.550;13.408;2023-04-24T06:26:48;6.90;;;6.50;;
3036;SDS011;1528;52.550;13.408;2023-04-24T06:29:35;8.60;;;8.20;;
3036;SDS011;1528;52.550;13.408;2023-04-24T06:32:21;7.90;;;7.50;;
3036;SDS011;1528;52.550;13.408;2023-04-24T06:35:07;7.00;;;6.60;;
3036;SDS011;1528;52.550;13.408;2023-04-24T06:37:56;6.90;;;6.60;;
3036;SDS011;1528;52.550;13.408;2023-04-24T06:40:41;7.20;;;6.90;;
3036;SDS011;1528;52.550;13.408;2023-04-24T06:43:27;7.73;;;7.43;;
3036;SDS011;1528;52.550;13.408;2023-04-24T06:46:13;8.03;;;7.53;;
3036;SDS011;1528;52.550;13.408;2023-04-24T06:48:58;7.67;;;7.30;;
3036;SDS011;1528;52.550;13.408;2023-04-24T06:51:45;8.33;;;7.73;;
3036;SDS011;1528;52.550;13.408;2023-04-24T06:54:32;6.57;;;6.27;;
3036;SDS011;1528;52.550;13.408;2023-04-24T06:57:18;7.67;;;7.37;;
3036;SDS011;1528;52.550;13.408;2023-04-24T07:00:04;7.50;;;6.90;;
3036;SDS011;1528;52.550;13.408;2023-04-24T07:02:52;6.27;;;5.97;;
3036;SDS011;1528;52.550;13.408;2023-04-24T07:05:38;6.30;;;6.00;;
3036;SDS011;1528;52.550;13.408;2023-04-24T07:08:24;7.07;;;6.67;;
3036;SDS011;1528;52.550;13.408;2023-04-24T07:11:11;6.87;;;6.47;;
3036;SDS011;1528;52.550;13.408;2023-04-24T07:13:56;6.60;;;6.30;;
3036;SDS011;1528;52.550;13.408;2023-04-24T07:16:42;6.77;;;6.37;;
3036;SDS011;1528;52.550;13.408;2023-04-24T07:19:27;7.23;;;6.83;;
3036;SDS011;1528;52.550;13.408;2023-04-24T07:22:13;6.27;;;6.07;;
3036;SDS011;1528;52.550;13.408;2023-04-24T07:25:00;6.13;;;5.73;;
3036;SDS011;1528;52.550;13.408;2023-04-24T07:27:47;5.43;;;5.23;;
3036;SDS011;1528;52.550;13.408;2023-04-24T07:30:33;5.63;;;5.23;;
3036;SDS011;1528;52.550;13.408;2023-04-24T07:33:19;5.00;;;4.80;;
3036;SDS011;1528;52.550;13.408;2023-04-24T07:36:04;5.10;;;4.90;;
3036;SDS011;1528;52.550;13.408;2023-04-24T07:38:50;4.63;;;4.43;;
3036;SDS011;1528;52.550;13.408;2023-04-24T07:41:36;4.60;;;4.40;;
3036;SDS011;1528;52.550;13.408;2023-04-24T07:44:23;4.47;;;4.30;;
3036;SDS011;1528;52.550;13.408;2023-04-24T07:47:09;4.47;;;4.27;;
3036;SDS011;1528;52.550;13.408;2023-04-24T07:49:54;4.87;;;4.57;;
3036;SDS011;1528;52.550;13.408;2023-04-24T07:52:40;4.30;;;4.20;;
3036;SDS011;1528;52.550;13.408;2023-04-24T07:55:25;5.77;;;5.47;;
3036;SDS011;1528;52.550;13.408;2023-04-24T07:58:11;5.70;;;5.40;;
3036;SDS011;1528;52.550;13.408;2023-04-24T08:00:58;6.37;;;6.07;;
3036;SDS011;1528;52.550;13.408;2023-04-24T08:03:43;5.97;;;5.67;;
3036;SDS011;1528;52.550;13.408;2023-04-24T08:06:29;6.10;;;5.90;;
3036;SDS011;1528;52.550;13.408;2023-04-24T08:09:15;6.20;;;5.90;;
3036;SDS011;1528;52.550;13.408;2023-04-24T08:12:01;5.60;;;5.40;;
3036;SDS011;1528;52.550;13.408;2023-04-24T08:14:47;6.50;;;5.97;;
3036;SDS011;1528;52.550;13.408;2023-04-24T08:17:34;6.07;;;5.70;;
3036;SDS011;1528;52.550;13.408;2023-04-24T08:20:20;4.87;;;4.67;;
3036;SDS011;1528;52.550;13.408;2023-04-24T08:23:06;4.83;;;4.63;;
3036;SDS011;1528;52.550;13.408;2023-04-24T08:25:51;5.00;;;4.70;;
3036;SDS011;1528;52.550;13.408;2023-04-24T08:28:37;5.70;;;5.50;;
3036;SDS011;1528;52.550;13.408;2023-04-24T08:31:23;5.57;;;5.37;;
3036;SDS011;1528;52.550;13.408;2023-04-24T08:34:10;5.70;;;5.50;;
3036;SDS011;1528;52.550;13.408;2023-04-24T08:36:56;5.70;;;5.50;;
3036;SDS011;1528;52.550;13.408;2023-04-24T08:39:42;5.60;;;5.40;;
3036;SDS011;1528;52.550;13.408;2023-04-24T08:42:28;5.50;;;5.30;;
3036;SDS011;1528;52.550;13.408;2023-04-24T08:45:16;6.20;;;6.00;;
3036;SDS011;1528;52.550;13.408;2023-04-24T08:48:02;7.77;;;7.30;;
3036;SDS011;1528;52.550;13.408;2023-04-24T08:50:52;6.20;;;5.97;;
3036;SDS011;1528;52.550;13.408;2023-04-24T08:53:39;6.57;;;6.37;;
3036;SDS011;1528;52.550;13.408;2023-04-24T08:56:24;5.80;;;4.70;;
3036;SDS011;1528;52.550;13.408;2023-04-24T08:59:10;6.57;;;6.37;;
3036;SDS011;1528;52.550;13.408;2023-04-24T09:01:57;5.70;;;5.50;;
3036;SDS011;1528;52.550;13.408;2023-04-24T09:04:42;5.97;;;5.73;;
3036;SDS011;1528;52.550;13.408;2023-04-24T09:07:30;7.40;;;7.20;;
3036;SDS011;1528;52.550;13.408;2023-04-24T09:10:21;6.20;;;6.00;;
3036;SDS011;1528;52.550;13.408;2023-04-24T09:13:07;7.20;;;7.00;;
3036;SDS011;1528;52.550;13.408;2023-04-24T09:15:53;8.03;;;7.83;;
3036;SDS011;1528;52.550;13.408;2023-04-24T09:18:40;6.20;;;6.00;;
3036;SDS011;1528;52.550;13.408;2023-04-24T09:21:30;6.07;;;5.87;;
3036;SDS011;1528;52.550;13.408;2023-04-24T09:24:19;6.53;;;6.33;;
3036;SDS011;1528;52.550;13.408;2023-04-24T09:27:06;6.10;;;5.80;;
3036;SDS011;1528;52.550;13.408;2023-04-24T09:29:55;5.20;;;5.00;;
3036;SDS011;1528;52.550;13.408;2023-04-24T09:32:41;6.60;;;6.40;;
3036;SDS011;1528;52.550;13.408;2023-04-24T09:35:26;5.17;;;4.90;;
3036;SDS011;1528;52.550;13.408;2023-04-24T09:38:12;5.07;;;4.87;;
3036;SDS011;1528;52.550;13.408;2023-04-24T09:41:00;5.03;;;4.83;;
3036;SDS011;1528;52.550;13.408;2023-04-24T09:43:47;5.50;;;5.30;;
3036;SDS011;1528;52.550;13.408;2023-04-24T09:46:33;5.83;;;5.63;;
3036;SDS011;1528;52.550;13.408;2023-04-24T09:49:21;6.10;;;5.70;;
3036;SDS011;1528;52.550;13.408;2023-04-24T09:52:09;6.27;;;5.97;;
3036;SDS011;1528;52.550;13.408;2023-04-24T09:54:55;5.67;;;5.47;;
3036;SDS011;1528;52.550;13.408;2023-04-24T09:57:49;4.43;;;4.23;;
3036;SDS011;1528;52.550;13.408;2023-04-24T10:00:35;7.20;;;6.90;;
3036;SDS011;1528;52.550;13.408;2023-04-24T10:03:23;6.30;;;6.10;;
3036;SDS011;1528;52.550;13.408;2023-04-24T10:06:11;6.87;;;6.60;;
3036;SDS011;1528;52.550;13.408;2023-04-24T10:08:57;5.63;;;5.33;;
3036;SDS011;1528;52.550;13.408;2023-04-24T10:11:44;6.93;;;6.57;;
3036;SDS011;1528;52.550;13.408;2023-04-24T10:14:32;6.80;;;6.50;;
3036;SDS011;1528;52.550;13.408;2023-04-24T10:17:18;6.70;;;6.40;;
3036;SDS011;1528;52.550;13.408;2023-04-24T10:20:05;5.77;;;5.57;;
3036;SDS011;1528;52.550;13.408;2023-04-24T10:22:52;7.47;;;7.17;;
3036;SDS011;1528;52.550;13.408;2023-04-24T10:25:38;6.80;;;6.60;;
3036;SDS011;1528;52.550;13.408;2023-04-24T10:28:24;8.07;;;7.47;;
3036;SDS011;1528;52.550;13.408;2023-04-24T10:31:12;6.67;;;6.37;;
3036;SDS011;1528;52.550;13.408;2023-04-24T10:33:58;7.53;;;7.13;;
3036;SDS011;1528;52.550;13.408;2023-04-24T10:36:46;8.70;;;8.40;;
3036;SDS011;1528;52.550;13.408;2023-04-24T10:39:35;6.50;;;6.30;;
3036;SDS011;1528;52.550;13.408;2023-04-24T10:42:24;6.50;;;6.30;;
3036;SDS011;1528;52.550;13.408;2023-04-24T10:45:16;6.10;;;5.90;;
3036;SDS011;1528;52.550;13.408;2023-04-24T10:48:04;5.50;;;5.30;;
3036;SDS011;1528;52.550;13.408;2023-04-24T10:50:54;5.10;;;4.90;;
3036;SDS011;1528;52.550;13.408;2023-04-24T10:53:40;7.10;;;6.80;;
3036;SDS011;1528;52.550;13.408;2023-04-24T10:56:25;5.83;;;5.50;;
3036;SDS011;1528;52.550;13.408;2023-04-24T10:59:11;5.53;;;5.33;;
3036;SDS011;1528;52.550;13.408;2023-04-24T11:02:09;5.30;;;5.00;;
3036;SDS011;1528;52.550;13.408;2023-04-24T11:04:56;6.70;;;6.50;;
3036;SDS011;1528;52.550;13.408;2023-04-24T11:11:00;4.40;;;4.07;;
3036;SDS011;1528;52.550;13.408;2023-04-24T11:14:04;4.80;;;4.60;;
3036;SDS011;1528;52.550;13.408;2023-04-24T11:16:51;5.70;;;5.50;;
3036;SDS011;1528;52.550;13.408;2023-04-24T11:19:38;6.83;;;6.53;;
3036;SDS011;1528;52.550;13.408;2023-04-24T11:22:25;7.53;;;7.23;;
3036;SDS011;1528;52.550;13.408;2023-04-24T11:28:56;6.67;;;6.40;;
3036;SDS011;1528;52.550;13.408;2023-04-24T11:31:52;6.43;;;6.23;;
3036;SDS011;1528;52.550;13.408;2023-04-24T11:34:37;5.13;;;4.87;;
3036;SDS011;1528;52.550;13.408;2023-04-24T11:37:26;5.90;;;5.50;;
3036;SDS011;1528;52.550;13.408;2023-04-24T11:40:12;7.13;;;6.73;;
3036;SDS011;1528;52.550;13.408;2023-04-24T11:42:59;6.50;;;6.10;;
3036;SDS011;1528;52.550;13.408;2023-04-24T11:45:47;5.57;;;5.37;;
3036;SDS011;1528;52.550;13.408;2023-04-24T11:48:34;6.00;;;5.70;;
3036;SDS011;1528;52.550;13.408;2023-04-24T11:51:23;8.90;;;8.27;;
3036;SDS011;1528;52.550;13.408;2023-04-24T11:54:11;8.77;;;6.60;;
3036;SDS011;1528;52.550;13.408;2023-04-24T11:56:57;9.30;;;8.80;;
3036;SDS011;1528;52.550;13.408;2023-04-24T11:59:42;6.67;;;6.27;;
3036;SDS011;1528;52.550;13.408;2023-04-24T12:02:28;6.63;;;6.33;;
3036;SDS011;1528;52.550;13.408;2023-04-24T12:05:18;8.43;;;8.03;;
3036;SDS011;1528;52.550;13.408;2023-04-24T12:08:05;6.10;;;5.80;;
3036;SDS011;1528;52.550;13.408;2023-04-24T12:10:52;7.37;;;7.10;;
3036;SDS011;1528;52.550;13.408;2023-04-24T12:13:38;6.27;;;5.97;;
3036;SDS011;1528;52.550;13.408;2023-04-24T12:16:23;7.20;;;7.00;;
3036;SDS011;1528;52.550;13.408;2023-04-24T12:19:11;8.13;;;7.87;;
3036;SDS011;1528;52.550;13.408;2023-04-24T12:22:00;12.50;;;12.10;;
3036;SDS011;1528;52.550;13.408;2023-04-24T12:24:55;14.03;;;13.63;;
3036;SDS011;1528;52.550;13.408;2023-04-24T12:27:43;12.93;;;12.53;;
3036;SDS011;1528;52.550;13.408;2023-04-24T12:30:30;10.10;;;9.60;;
3036;SDS011;1528;52.550;13.408;2023-04-24T12:33:17;11.83;;;11.43;;
3036;SDS011;1528;52.550;13.408;2023-04-24T12:36:03;13.20;;;12.70;;
3036;SDS011;1528;52.550;13.408;2023-04-24T12:38:52;13.50;;;13.00;;
3036;SDS011;1528;52.550;13.408;2023-04-24T12:41:37;9.67;;;9.27;;
3036;SDS011;1528;52.550;13.408;2023-04-24T12:44:35;9.97;;;9.57;;
3036;SDS011;1528;52.550;13.408;2023-04-24T12:47:20;9.50;;;9.20;;
3036;SDS011;1528;52.550;13.408;2023-04-24T12:50:06;8.47;;;8.07;;
3036;SDS011;1528;52.550;13.408;2023-04-24T12:52:52;8.53;;;8.13;;
3036;SDS011;1528;52.550;13.408;2023-04-24T12:55:38;6.30;;;6.00;;
3036;SDS011;1528;52.550;13.408;2023-04-24T12:58:23;9.40;;;8.97;;
3036;SDS011;1528;52.550;13.408;2023-04-24T13:01:10;8.97;;;8.50;;
3036;SDS011;1528;52.550;13.408;2023-04-24T13:03:56;10.47;;;9.97;;
3036;SDS011;1528;52.550;13.408;2023-04-24T13:06:42;9.53;;;9.23;;
3036;SDS011;1528;52.550;13.408;2023-04-24T13:09:27;5.83;;;5.53;;
3036;SDS011;1528;52.550;13.408;2023-04-24T13:12:13;5.77;;;5.57;;
3036;SDS011;1528;52.550;13.408;2023-04-24T13:14:59;5.33;;;4.93;;
3036;SDS011;1528;52.550;13.408;2023-04-24T13:17:46;5.40;;;5.20;;
3036;SDS011;1528;52.550;13.408;2023-04-24T13:20:31;5.60;;;5.40;;
3036;SDS011;1528;52.550;13.408;2023-04-24T13:23:19;5.03;;;4.73;;
3036;SDS011;1528;52.550;13.408;2023-04-24T13:26:04;4.70;;;4.40;;
3036;SDS011;1528;52.550;13.408;2023-04-24T13:28:51;8.03;;;7.83;;
3036;SDS011;1528;52.550;13.408;2023-04-24T13:31:36;9.63;;;9.30;;
3036;SDS011;1528;52.550;13.408;2023-04-24T13:34:24;6.87;;;6.53;;
3036;SDS011;1528;52.550;13.408;2023-04-24T13:37:10;8.77;;;8.37;;
3036;SDS011;1528;52.550;13.408;2023-04-24T13:39:56;9.13;;;8.73;;
3036;SDS011;1528;52.550;13.408;2023-04-24T13:42:41;7.27;;;6.93;;
3036;SDS011;1528;52.550;13.408;2023-04-24T13:45:27;6.73;;;6.40;;
3036;SDS011;1528;52.550;13.408;2023-04-24T13:48:13;7.43;;;7.00;;
3036;SDS011;1528;52.550;13.408;2023-04-24T13:51:00;7.30;;;6.13;;
3036;SDS011;1528;52.550;13.408;2023-04-24T13:53:46;6.37;;;6.17;;
3036;SDS011;1528;52.550;13.408;2023-04-24T13:56:31;6.70;;;6.30;;
3036;SDS011;1528;52.550;13.408;2023-04-24T13:59:17;4.47;;;4.27;;
3036;SDS011;1528;52.550;13.408;2023-04-24T14:02:04;4.23;;;4.03;;
3036;SDS011;1528;52.550;13.408;2023-04-24T14:04:49;4.47;;;4.27;;
3036;SDS011;1528;52.550;13.408;2023-04-24T14:07:36;5.00;;;4.60;;
3036;SDS011;1528;52.550;13.408;2023-04-24T14:10:21;4.63;;;4.43;;
3036;SDS011;1528;52.550;13.408;2023-04-24T14:13:07;8.43;;;8.03;;
3036;SDS011;1528;52.550;13.408;2023-04-24T14:15:52;8.60;;;8.30;;
3036;SDS011;1528;52.550;13.408;2023-04-24T14:18:38;6.90;;;6.60;;
3036;SDS011;1528;52.550;13.408;2023-04-24T14:21:24;7.47;;;7.27;;
3036;SDS011;1528;52.550;13.408;2023-04-24T14:24:10;7.00;;;6.77;;
3036;SDS011;1528;52.550;13.408;2023-04-24T14:26:56;6.20;;;5.90;;
3036;SDS011;1528;52.550;13.408;2023-04-24T14:29:42;6.70;;;6.50;;
3036;SDS011;1528;52.550;13.408;2023-04-24T14:32:28;4.27;;;4.07;;
3036;SDS011;1528;52.550;13.408;2023-04-24T14:35:14;5.90;;;5.70;;
3036;SDS011;1528;52.550;13.408;2023-04-24T14:38:00;4.60;;;4.20;;
3036;SDS011;1528;52.550;13.408;2023-04-24T14:40:47;8.70;;;8.40;;
3036;SDS011;1528;52.550;13.408;2023-04-24T14:43:32;7.40;;;7.20;;
3036;SDS011;1528;52.550;13.408;2023-04-24T14:46:19;6.50;;;6.30;;
3036;SDS011;1528;52.550;13.408;2023-04-24T14:49:05;6.43;;;6.23;;
3036;SDS011;1528;52.550;13.408;2023-04-24T14:51:53;6.00;;;5.77;;
3036;SDS011;1528;52.550;13.408;2023-04-24T14:54:39;11.03;;;10.63;;
3036;SDS011;1528;52.550;13.408;2023-04-24T14:57:26;11.47;;;11.07;;
3036;SDS011;1528;52.550;13.408;2023-04-24T15:00:11;7.97;;;7.67;;
3036;SDS011;1528;52.550;13.408;2023-04-24T15:02:57;5.57;;;5.27;;
3036;SDS011;1528;52.550;13.408;2023-04-24T15:05:43;5.70;;;5.50;;
3036;SDS011;1528;52.550;13.408;2023-04-24T15:08:28;5.20;;;5.00;;
3036;SDS011;1528;52.550;13.408;2023-04-24T15:11:14;5.60;;;5.30;;
3036;SDS011;1528;52.550;13.408;2023-04-24T15:14:01;5.13;;;4.63;;
3036;SDS011;1528;52.550;13.408;2023-04-24T15:16:47;5.77;;;5.47;;
3036;SDS011;1528;52.550;13.408;2023-04-24T15:19:32;4.60;;;4.40;;
3036;SDS011;1528;52.550;13.408;2023-04-24T15:22:18;5.13;;;4.93;;
3036;SDS011;1528;52.550;13.408;2023-04-24T15:25:04;3.97;;;3.77;;
3036;SDS011;1528;52.550;13.408;2023-04-24T15:27:50;5.20;;;4.80;;
3036;SDS011;1528;52.550;13.408;2023-04-24T15:30:37;5.80;;;5.40;;
3036;SDS011;1528;52.550;13.408;2023-04-24T15:33:23;6.07;;;5.77;;
3036;SDS011;1528;52.550;13.408;2023-04-24T15:36:09;9.73;;;4.70;;
3036;SDS011;1528;52.550;13.408;2023-04-24T15:38:55;5.33;;;4.90;;
3036;SDS011;1528;52.550;13.408;2023-04-24T15:41:40;4.60;;;4.40;;
3036;SDS011;1528;52.550;13.408;2023-04-24T15:44:26;4.73;;;4.47;;
3036;SDS011;1528;52.550;13.408;2023-04-24T15:47:13;4.97;;;4.77;;
3036;SDS011;1528;52.550;13.408;2023-04-24T15:49:58;4.53;;;4.20;;
3036;SDS011;1528;52.550;13.408;2023-04-24T15:52:44;4.47;;;4.07;;
3036;SDS011;1528;52.550;13.408;2023-04-24T15:55:30;4.40;;;4.20;;
3036;SDS011;1528;52.550;13.408;2023-04-24T15:58:16;4.47;;;4.27;;
3036;SDS011;1528;52.550;13.408;2023-04-24T16:01:02;4.60;;;4.40;;
3036;SDS011;1528;52.550;13.408;2023-04-24T16:03:49;4.77;;;4.47;;
3036;SDS011;1528;52.550;13.408;2023-04-24T16:06:34;4.27;;;4.00;;
3036;SDS011;1528;52.550;13.408;2023-04-24T16:09:20;4.10;;;3.90;;
3036;SDS011;1528;52.550;13.408;2023-04-24T16:12:05;5.00;;;4.70;;
3036;SDS011;1528;52.550;13.408;2023-04-24T16:14:52;4.80;;;4.50;;
3036;SDS011;1528;52.550;13.408;2023-04-24T16:17:38;4.57;;;4.33;;
3036;SDS011;1528;52.550;13.408;2023-04-24T16:20:24;5.07;;;4.77;;
3036;SDS011;1528;52.550;13.408;2023-04-24T16:23:10;5.00;;;4.60;;
3036;SDS011;1528;52.550;13.408;2023-04-24T16:25:57;4.67;;;4.47;;
3036;SDS011;1528;52.550;13.408;2023-04-24T16:28:43;4.33;;;4.13;;
3036;SDS011;1528;52.550;13.408;2023-04-24T16:31:29;4.43;;;4.23;;
3036;SDS011;1528;52.550;13.408;2023-04-24T16:34:14;4.67;;;4.37;;
3036;SDS011;1528;52.550;13.408;2023-04-24T16:37:01;4.80;;;4.50;;
3036;SDS011;1528;52.550;13.408;2023-04-24T16:39:48;4.33;;;4.03;;
3036;SDS011;1528;52.550;13.408;2023-04-24T16:42:33;4.77;;;4.47;;
3036;SDS011;1528;52.550;13.408;2023-04-24T16:45:19;5.23;;;4.97;;
3036;SDS011;1528;52.550;13.408;2023-04-24T16:48:04;5.30;;;5.00;;
3036;SDS011;1528;52.550;13.408;2023-04-24T16:50:53;5.07;;;4.87;;
3036;SDS011;1528;52.550;13.408;2023-04-24T16:53:41;5.00;;;4.60;;
3036;SDS011;1528;52.550;13.408;2023-04-24T16:56:27;6.93;;;5.10;;
3036;SDS011;1528;52.550;13.408;2023-04-24T16:59:12;5.33;;;5.00;;